sensor_id;sensor_type;location;lat;lon;timestamp;pressure;altitude;pressure_sealevel;temperature;humidity
27864;BME280;15980;51.092;13.916;2023-05-02T00:05:26;98482.50;;;12.75;74.54
27864;BME280;15980;51.092;13.916;2023-05-02T00:15:27;98482.06;;;12.73;74.84
27864;BME280;15980;51.092;13.916;2023-05-02T00:25:27;98491.41;;;12.68;75.37
27864;BME280;15980;51.092;13.916;2023-05-02T00:35:27;98507.34;;;12.59;74.75
27864;BME280;15980;51.092;13.916;2023-05-02T00:45:28;98506.41;;;12.71;73.93
27864;BME280;15980;51.092;13.916;2023-05-02T00:55:28;98509.81;;;12.64;74.17
27864;BME280;15980;51.092;13.916;2023-05-02T01:05:43;98504.59;;;12.59;74.65
27864;BME280;15980;51.092;13.916;2023-05-02T01:15:49;98502.72;;;12.47;75.94
27864;BME280;15980;51.092;13.916;2023-05-02T01:36:30;98496.53;;;12.35;75.63
27864;BME280;15980;51.092;13.916;2023-05-02T01:46:36;98500.16;;;12.39;75.26
27864;BME280;15980;51.092;13.916;2023-05-02T01:56:38;98493.06;;;12.38;75.58
27864;BME280;15980;51.092;13.916;2023-05-02T02:06:40;98495.00;;;12.37;75.75
27864;BME280;15980;51.092;13.916;2023-05-02T02:16:41;98499.63;;;12.33;75.48
27864;BME280;15980;51.092;13.916;2023-05-02T02:26:42;98508.59;;;12.30;76.62
27864;BME280;15980;51.092;13.916;2023-05-02T02:37:24;98520.03;;;12.32;76.08
27864;BME280;15980;51.092;13.916;2023-05-02T02:47:41;98531.75;;;12.29;75.77
27864;BME280;15980;51.092;13.916;2023-05-02T02:57:50;98544.63;;;12.25;75.86
27864;BME280;15980;51.092;13.916;2023-05-02T03:07:54;98560.69;;;12.23;75.38
27864;BME280;15980;51.092;13.916;2023-05-02T03:17:54;98573.38;;;12.27;74.39
27864;BME280;15980;51.092;13.916;2023-05-02T03:27:56;98578.09;;;12.27;73.71
27864;BME280;15980;51.092;13.916;2023-05-02T03:37:56;98596.53;;;12.26;73.33
27864;BME280;15980;51.092;13.916;2023-05-02T03:47:57;98605.84;;;12.22;73.28
27864;BME280;15980;51.092;13.916;2023-05-02T03:57:57;98610.91;;;12.20;73.21
27864;BME280;15980;51.092;13.916;2023-05-02T04:07:57;98624.75;;;12.23;73.31
27864;BME280;15980;51.092;13.916;2023-05-02T04:17:57;98633.41;;;12.10;73.65
27864;BME280;15980;51.092;13.916;2023-05-02T04:27:58;98654.97;;;12.08;73.98
27864;BME280;15980;51.092;13.916;2023-05-02T04:37:58;98669.03;;;12.18;73.57
27864;BME280;15980;51.092;13.916;2023-05-02T04:47:58;98690.47;;;12.13;73.62
27864;BME280;15980;51.092;13.916;2023-05-02T04:57:59;98699.66;;;12.05;73.83
27864;BME280;15980;51.092;13.916;2023-05-02T05:07:59;98708.03;;;12.36;72.30
27864;BME280;15980;51.092;13.916;2023-05-02T05:17:59;98729.81;;;12.57;71.56
27864;BME280;15980;51.092;13.916;2023-05-02T05:27:59;98732.59;;;12.73;70.44
27864;BME280;15980;51.092;13.916;2023-05-02T05:38:00;98748.84;;;12.78;69.93
27864;BME280;15980;51.092;13.916;2023-05-02T05:48:00;98760.69;;;12.94;68.59
27864;BME280;15980;51.092;13.916;2023-05-02T05:58:01;98776.25;;;13.02;66.95
27864;BME280;15980;51.092;13.916;2023-05-02T06:08:02;98800.81;;;13.23;65.92
27864;BME280;15980;51.092;13.916;2023-05-02T06:18:02;98817.97;;;13.48;63.51
27864;BME280;15980;51.092;13.916;2023-05-02T06:28:03;98825.75;;;13.77;61.17
27864;BME280;15980;51.092;13.916;2023-05-02T06:38:03;98842.06;;;14.18;59.60
27864;BME280;15980;51.092;13.916;2023-05-02T06:48:04;98858.19;;;14.51;60.71
27864;BME280;15980;51.092;13.916;2023-05-02T06:58:04;98871.41;;;14.61;58.88
27864;BME280;15980;51.092;13.916;2023-05-02T07:08:04;98883.69;;;14.63;58.75
27864;BME280;15980;51.092;13.916;2023-05-02T07:18:05;98903.09;;;14.67;56.91
27864;BME280;15980;51.092;13.916;2023-05-02T07:28:06;98921.78;;;14.73;56.22
27864;BME280;15980;51.092;13.916;2023-05-02T07:38:06;98940.03;;;14.59;56.28
27864;BME280;15980;51.092;13.916;2023-05-02T07:48:06;98955.94;;;14.65;57.37
27864;BME280;15980;51.092;13.916;2023-05-02T07:58:07;98966.88;;;14.77;57.71
27864;BME280;15980;51.092;13.916;2023-05-02T08:08:07;98991.81;;;14.46;59.36
27864;BME280;15980;51.092;13.916;2023-05-02T08:18:07;99000.25;;;14.06;60.88
27864;BME280;15980;51.092;13.916;2023-05-02T08:28:07;99008.78;;;14.17;61.85
27864;BME280;15980;51.092;13.916;2023-05-02T08:38:08;99030.22;;;14.70;61.78
27864;BME280;15980;51.092;13.916;2023-05-02T08:48:09;99035.19;;;15.16;58.85
27864;BME280;15980;51.092;13.916;2023-05-02T08:58:10;99042.19;;;15.87;55.23
27864;BME280;15980;51.092;13.916;2023-05-02T09:08:11;99047.69;;;16.29;54.31
27864;BME280;15980;51.092;13.916;2023-05-02T09:18:18;99050.56;;;16.36;54.91
27864;BME280;15980;51.092;13.916;2023-05-02T09:28:19;99062.06;;;15.92;52.41
27864;BME280;15980;51.092;13.916;2023-05-02T09:38:19;99065.78;;;16.46;50.85
27864;BME280;15980;51.092;13.916;2023-05-02T09:48:19;99075.06;;;16.11;51.06
27864;BME280;15980;51.092;13.916;2023-05-02T09:58:21;99091.50;;;15.81;54.53
27864;BME280;15980;51.092;13.916;2023-05-02T10:08:24;99113.16;;;15.98;53.11
27864;BME280;15980;51.092;13.916;2023-05-02T10:18:28;99098.31;;;17.54;50.58
27864;BME280;15980;51.092;13.916;2023-05-02T10:28:33;99104.59;;;17.21;51.55
27864;BME280;15980;51.092;13.916;2023-05-02T10:38:34;99117.44;;;17.33;50.80
27864;BME280;15980;51.092;13.916;2023-05-02T10:48:35;99116.94;;;18.17;49.63
27864;BME280;15980;51.092;13.916;2023-05-02T10:58:35;99125.31;;;17.01;51.53
27864;BME280;15980;51.092;13.916;2023-05-02T11:08:35;99138.53;;;15.46;59.57
27864;BME280;15980;51.092;13.916;2023-05-02T11:18:58;99138.19;;;15.63;60.80
27864;BME280;15980;51.092;13.916;2023-05-02T11:28:58;99126.34;;;16.47;57.48
27864;BME280;15980;51.092;13.916;2023-05-02T11:39:02;99132.13;;;17.64;52.87
27864;BME280;15980;51.092;13.916;2023-05-02T11:49:04;99132.19;;;16.65;55.93
27864;BME280;15980;51.092;13.916;2023-05-02T11:59:04;99133.47;;;16.68;56.26
27864;BME280;15980;51.092;13.916;2023-05-02T12:09:09;99144.81;;;16.62;55.57
27864;BME280;15980;51.092;13.916;2023-05-02T12:19:10;99153.69;;;15.87;61.00
27864;BME280;15980;51.092;13.916;2023-05-02T12:29:11;99166.06;;;16.13;56.30
27864;BME280;15980;51.092;13.916;2023-05-02T12:39:11;99168.31;;;15.53;60.01
27864;BME280;15980;51.092;13.916;2023-05-02T12:49:12;99168.84;;;15.58;60.28
27864;BME280;15980;51.092;13.916;2023-05-02T12:59:31;99147.41;;;17.24;55.09
27864;BME280;15980;51.092;13.916;2023-05-02T13:09:31;99154.09;;;16.93;56.47
27864;BME280;15980;51.092;13.916;2023-05-02T13:19:32;99147.13;;;17.33;55.47
27864;BME280;15980;51.092;13.916;2023-05-02T13:29:32;99168.94;;;17.61;51.79
27864;BME280;15980;51.092;13.916;2023-05-02T13:39:32;99153.97;;;18.66;49.44
27864;BME280;15980;51.092;13.916;2023-05-02T13:49:33;99165.34;;;17.56;52.41
27864;BME280;15980;51.092;13.916;2023-05-02T13:59:33;99161.34;;;18.17;52.03
27864;BME280;15980;51.092;13.916;2023-05-02T14:09:33;99167.34;;;17.86;51.23
27864;BME280;15980;51.092;13.916;2023-05-02T14:19:33;99176.09;;;17.62;50.66
27864;BME280;15980;51.092;13.916;2023-05-02T14:29:34;99173.63;;;17.79;51.29
27864;BME280;15980;51.092;13.916;2023-05-02T14:39:35;99170.19;;;17.63;51.95
27864;BME280;15980;51.092;13.916;2023-05-02T14:49:35;99181.19;;;17.56;52.69
27864;BME280;15980;51.092;13.916;2023-05-02T14:59:35;99181.47;;;16.75;57.47
27864;BME280;15980;51.092;13.916;2023-05-02T15:09:35;99232.13;;;16.14;60.55
27864;BME280;15980;51.092;13.916;2023-05-02T15:19:36;99224.63;;;15.60;63.99
27864;BME280;15980;51.092;13.916;2023-05-02T15:29:36;99231.13;;;15.52;65.55
27864;BME280;15980;51.092;13.916;2023-05-02T15:39:36;99239.47;;;15.05;66.79
27864;BME280;15980;51.092;13.916;2023-05-02T15:49:36;99253.81;;;14.95;64.43
27864;BME280;15980;51.092;13.916;2023-05-02T15:59:37;99258.19;;;14.80;65.64
27864;BME280;15980;51.092;13.916;2023-05-02T16:09:38;99273.97;;;15.27;63.76
27864;BME280;15980;51.092;13.916;2023-05-02T16:19:38;99308.03;;;15.15;61.36
27864;BME280;15980;51.092;13.916;2023-05-02T16:29:38;99311.03;;;14.94;62.75
27864;BME280;15980;51.092;13.916;2023-05-02T16:39:38;99313.09;;;14.41;65.79
27864;BME280;15980;51.092;13.916;2023-05-02T16:49:39;99317.28;;;14.23;67.10
27864;BME280;15980;51.092;13.916;2023-05-02T16:59:39;99320.38;;;14.22;67.76
27864;BME280;15980;51.092;13.916;2023-05-02T17:09:40;99334.38;;;13.76;68.71
27864;BME280;15980;51.092;13.916;2023-05-02T17:19:41;99346.91;;;13.74;69.05
27864;BME280;15980;51.092;13.916;2023-05-02T17:29:41;99362.94;;;13.23;69.13
27864;BME280;15980;51.092;13.916;2023-05-02T17:39:41;99383.88;;;13.03;69.91
27864;BME280;15980;51.092;13.916;2023-05-02T17:49:41;99411.06;;;12.72;68.94
27864;BME280;15980;51.092;13.916;2023-05-02T17:59:42;99418.16;;;12.73;68.09
27864;BME280;15980;51.092;13.916;2023-05-02T18:09:42;99435.00;;;12.50;68.26
27864;BME280;15980;51.092;13.916;2023-05-02T18:19:42;99443.19;;;12.17;68.46
27864;BME280;15980;51.092;13.916;2023-05-02T18:29:43;99463.34;;;11.92;68.30
27864;BME280;15980;51.092;13.916;2023-05-02T18:39:43;99466.81;;;11.80;67.59
27864;BME280;15980;51.092;13.916;2023-05-02T18:49:43;99467.63;;;11.63;68.06
27864;BME280;15980;51.092;13.916;2023-05-02T18:59:43;99491.78;;;11.41;68.05
27864;BME280;15980;51.092;13.916;2023-05-02T19:09:44;99488.72;;;11.33;67.75
27864;BME280;15980;51.092;13.916;2023-05-02T19:19:44;99504.72;;;11.23;67.05
27864;BME280;15980;51.092;13.916;2023-05-02T19:29:44;99509.75;;;11.12;66.75
27864;BME280;15980;51.092;13.916;2023-05-02T19:39:44;99523.00;;;10.84;66.90
27864;BME280;15980;51.092;13.916;2023-05-02T19:49:45;99530.81;;;10.43;69.15
27864;BME280;15980;51.092;13.916;2023-05-02T19:59:45;99541.56;;;10.22;69.32
27864;BME280;15980;51.092;13.916;2023-05-02T20:09:45;99556.53;;;9.93;70.07
27864;BME280;15980;51.092;13.916;2023-05-02T20:19:46;99554.22;;;9.78;70.90
27864;BME280;15980;51.092;13.916;2023-05-02T20:29:46;99569.06;;;9.55;71.27
27864;BME280;15980;51.092;13.916;2023-05-02T20:39:46;99575.78;;;9.26;71.63
27864;BME280;15980;51.092;13.916;2023-05-02T20:49:46;99580.44;;;9.26;71.33
27864;BME280;15980;51.092;13.916;2023-05-02T20:59:47;99579.81;;;9.29;71.18
27864;BME280;15980;51.092;13.916;2023-05-02T21:09:47;99591.09;;;9.50;71.15
27864;BME280;15980;51.092;13.916;2023-05-02T21:19:48;99603.47;;;9.47;70.49
27864;BME280;15980;51.092;13.916;2023-05-02T21:29:48;99611.25;;;9.54;70.14
27864;BME280;15980;51.092;13.916;2023-05-02T21:39:48;99616.94;;;9.57;69.72
27864;BME280;15980;51.092;13.916;2023-05-02T21:49:49;99625.97;;;9.58;69.82
27864;BME280;15980;51.092;13.916;2023-05-02T21:59:49;99623.88;;;9.55;69.71
27864;BME280;15980;51.092;13.916;2023-05-02T22:09:49;99618.38;;;9.55;70.10
27864;BME280;15980;51.092;13.916;2023-05-02T22:19:49;99631.47;;;9.58;70.35
27864;BME280;15980;51.092;13.916;2023-05-02T22:29:50;99622.53;;;9.52;70.37
27864;BME280;15980;51.092;13.916;2023-05-02T22:39:50;99633.22;;;9.40;71.42
27864;BME280;15980;51.092;13.916;2023-05-02T22:49:50;99633.16;;;9.31;72.91
27864;BME280;15980;51.092;13.916;2023-05-02T22:59:50;99635.22;;;9.26;73.93
27864;BME280;15980;51.092;13.916;2023-05-02T23:09:51;99636.44;;;9.20;74.74
27864;BME280;15980;51.092;13.916;2023-05-02T23:19:51;99635.75;;;9.14;76.31
27864;BME280;15980;51.092;13.916;2023-05-02T23:29:51;99644.06;;;9.09;76.58
27864;BME280;15980;51.092;13.916;2023-05-02T23:39:52;99652.00;;;9.10;76.57
27864;BME280;15980;51.092;13.916;2023-05-02T23:49:52;99656.34;;;9.11;77.98
27864;BME280;15980;51.092;13.916;2023-05-02T23:59:53;99655.94;;;9.04;77.64
